Terminal Aerodrome Forecast
Issued by NWS

Home | Current Version | Previous Version | Graphics & Text | Print | Product List | Glossary On
Versions: 1 2 3 4 5 6 7 8 9 10 11 12 13
007
FTUS43 KBIS 170527
TAFJMS
TAF
KJMS 170527Z 1706/1806 10007KT P6SM SCT200
     FM171000 12010KT P6SM BKN200
     FM172300 08010KT P6SM BKN100=

USA.gov is the U.S. government's official web portal to all federal, state and local government web resources and services.